Time;durP1;ratioP1;P1;durP2;ratioP2;P2;SDS_P1;SDS_P2;PMS_P1;PMS_P2;Temp;Humidity;BMP_temperature;BMP_pressure;BME280_temperature;BME280_humidity;BME280_pressure;Samples;Min_cycle;Max_cycle;Signal;HPM_P1;HPM_P2
2023/03/25 00:01:44;;;;;;;;;;;;;;;;;;5000979;28;9298;-61
2023/03/25 00:04:10;;;;;;;;;;;;;;;;;;5017886;28;6973;-61
2023/03/25 00:06:35;;;;;;;;;;;;;;;;;;5018787;28;7128;-60
2023/03/25 00:15:10;;;;;;;;;;;;;;;;;;5018198;28;6917;-60
2023/03/25 00:17:37;;;;;;;;;;;;;;;;;;5018395;28;7268;-60
2023/03/25 00:20:12;;;;;;;;;;;;;;;;;;5018355;28;7114;-60
2023/03/25 00:22:40;;;;;;;;;;;;;;;;;;5018077;28;7270;-60
2023/03/25 00:25:07;;;;;;;;;;;;;;;;;;5018563;28;7014;-60
2023/03/25 00:27:33;;;;;;;;;;;;;;;;;;5018108;28;8010;-60
2023/03/25 00:30:05;;;;;;;;;;;;;;;;;;5017822;28;7204;-60
2023/03/25 00:32:31;;;;;;;;;;;;;;;;;;5018140;28;6853;-60
2023/03/25 00:34:56;;;;;;;;;;;;;;;;;;5018103;28;7861;-60
2023/03/25 00:37:36;;;;;;;;;;;;;;;;;;5017993;28;6929;-60
2023/03/25 00:40:02;;;;;;;;;;;;;;;;;;5018002;28;7205;-60
2023/03/25 00:42:28;;;;;;;;;;;;;;;;;;5017947;28;6948;-60
2023/03/25 00:45:20;;;;;;;;;;;;;;;;;;5017996;28;7021;-60
2023/03/25 00:47:46;;;;;;;;;;;;;;;;;;5017853;28;7260;-60
2023/03/25 00:50:12;;;;;;;;;;;;;;;;;;5018330;28;7144;-60
2023/03/25 00:52:44;;;;;;;;;;;;;;;;;;5018468;28;7148;-60
2023/03/25 00:55:09;;;;;;;;;;;;;;;;;;5018675;28;7523;-60
2023/03/25 01:00:37;;;;;;;;;;;;;;;;;;5016951;28;7075;-60
2023/03/25 01:03:18;;;;;;;;;;;;;;;;;;5017620;28;7201;-60
2023/03/25 01:05:44;;;;;;;;;;;;;;;;;;5017645;28;6998;-60
2023/03/25 01:08:13;;;;;;;;;;;;;;;;;;5017316;28;7189;-60
2023/03/25 01:10:39;;;;;;;;;;;;;;;;;;5017227;28;7053;-60
2023/03/25 01:13:04;;;;;;;;;;;;;;;;;;5017372;28;7879;-60
2023/03/25 01:18:21;;;;;;;;;;;;;;;;;;5017608;28;6945;-60
2023/03/25 01:20:47;;;;;;;;;;;;;;;;;;5017360;28;6993;-60
2023/03/25 01:23:36;;;;;;;;;;;;;;;;;;5018081;28;7408;-60
2023/03/25 01:26:01;;;;;;;;;;;;;;;;;;5016984;28;6930;-60
2023/03/25 01:28:43;;;;;;;;;;;;;;;;;;5016984;28;7171;-60
2023/03/25 01:31:10;;;;;;;;;;;;;;;;;;5016791;28;7199;-60
2023/03/25 01:33:36;;;;;;;;;;;;;;;;;;5016964;28;6984;-60
2023/03/25 01:36:02;;;;;;;;;;;;;;;;;;5016925;28;7224;-60
2023/03/25 01:38:38;;;;;;;;;;;;;;;;;;5016892;28;7212;-60
2023/03/25 01:53:19;;;;;;;;;;;;;;;;;;4937506;29;6934;-60
2023/03/25 01:55:46;;;;;;;;;;;;;;;;;;4936994;29;7038;-60
2023/03/25 01:58:33;;;;;;;;;;;;;;;;;;4937098;29;7380;-60
2023/03/25 02:01:00;;;;;;;;;;;;;;;;;;4936802;29;7239;-60
2023/03/25 02:03:45;;;;;;;;;;;;;;;;;;4936938;29;7247;-60
2023/03/25 02:06:30;;;;;;;;;;;;;;;;;;4937000;29;8172;-60
2023/03/25 02:08:58;;;;;;;;;;;;;;;;;;4936743;29;7156;-60
2023/03/25 02:11:38;;;;;;;;;;;;;;;;;;4936510;29;7232;-60
2023/03/25 02:14:09;;;;;;;;;;;;;;;;;;4936756;29;7010;-60
2023/03/25 02:16:41;;;;;;;;;;;;;;;;;;4936547;29;7139;-60
2023/03/25 02:25:44;;;;;;;;;;;;;;;;;;5015929;28;6920;-60
2023/03/25 02:28:16;;;;;;;;;;;;;;;;;;5015809;28;7738;-60
2023/03/25 02:31:05;;;;;;;;;;;;;;;;;;5016017;28;7039;-60
2023/03/25 02:37:05;;;;;;;;;;;;;;;;;;4936338;29;6769;-60
2023/03/25 02:42:53;;;;;;;;;;;;;;;;;;4936846;29;6683;-60
2023/03/25 02:45:30;;;;;;;;;;;;;;;;;;4936117;29;7199;-60
2023/03/25 02:48:02;;;;;;;;;;;;;;;;;;4936229;29;7417;-60
2023/03/25 02:56:36;;;;;;;;;;;;;;;;;;4935787;29;7051;-60
2023/03/25 02:59:06;;;;;;;;;;;;;;;;;;4936005;29;6815;-60
2023/03/25 03:01:33;;;;;;;;;;;;;;;;;;4936599;29;7209;-60
2023/03/25 03:04:00;;;;;;;;;;;;;;;;;;4935348;29;7033;-60
2023/03/25 03:06:27;;;;;;;;;;;;;;;;;;4943797;28;6933;-60
2023/03/25 03:09:00;;;;;;;;;;;;;;;;;;4995771;28;7379;-54
2023/03/25 03:11:57;;;;;;;;;;;;;;;;;;4995410;28;6993;-54
2023/03/25 03:14:22;;;;;;;;;;;;;;;;;;4995729;28;6856;-54
2023/03/25 03:17:09;;;;;;;;;;;;;;;;;;4995524;28;7360;-55
2023/03/25 03:23:14;;;;;;;;;;;;;;;;;;4995252;28;6702;-54
2023/03/25 03:25:43;;;;;;;;;;;;;;;;;;4995343;28;7185;-55
2023/03/25 03:31:21;;;;;;;;;;;;;;;;;;4995237;28;6750;-55
2023/03/25 03:33:57;;;;;;;;;;;;;;;;;;5011816;28;7033;-55
2023/03/25 03:36:34;;;;;;;;;;;;;;;;;;5014896;28;7059;-54
2023/03/25 03:39:12;;;;;;;;;;;;;;;;;;5014693;28;7040;-55
2023/03/25 03:41:43;;;;;;;;;;;;;;;;;;5015081;28;7424;-56
2023/03/25 03:44:13;;;;;;;;;;;;;;;;;;5014882;28;7230;-55
2023/03/25 03:46:50;;;;;;;;;;;;;;;;;;5014912;28;7219;-54
2023/03/25 03:49:20;;;;;;;;;;;;;;;;;;5014591;28;7197;-54
2023/03/25 03:52:15;;;;;;;;;;;;;;;;;;5015475;28;7056;-55
2023/03/25 03:57:59;;;;;;;;;;;;;;;;;;5014946;28;7060;-55
2023/03/25 04:00:30;;;;;;;;;;;;;;;;;;5015208;28;7026;-55
2023/03/25 04:06:23;;;;;;;;;;;;;;;;;;5030888;28;6909;-55
2023/03/25 04:09:03;;;;;;;;;;;;;;;;;;5034334;28;7188;-55
2023/03/25 04:11:55;;;;;;;;;;;;;;;;;;5033988;28;7211;-54
2023/03/25 04:14:21;;;;;;;;;;;;;;;;;;5034122;28;7158;-55
2023/03/25 04:19:52;;;;;;;;;;;;;;;;;;5034239;28;6682;-52
2023/03/25 04:22:18;;;;;;;;;;;;;;;;;;5025723;28;7065;-54
2023/03/25 04:27:57;;;;;;;;;;;;;;;;;;5014335;28;6942;-56
2023/03/25 04:30:24;;;;;;;;;;;;;;;;;;5014505;28;7194;-55
2023/03/25 04:32:51;;;;;;;;;;;;;;;;;;5014129;28;7222;-54
2023/03/25 04:35:18;;;;;;;;;;;;;;;;;;5015232;28;7106;-49
2023/03/25 04:37:53;;;;;;;;;;;;;;;;;;5034794;28;7152;-49
2023/03/25 04:40:19;;;;;;;;;;;;;;;;;;5038106;28;6916;-54
2023/03/25 04:46:14;;;;;;;;;;;;;;;;;;5029009;28;6678;-54
2023/03/25 04:48:40;;;;;;;;;;;;;;;;;;5017752;28;7008;-50
2023/03/25 04:51:09;;;;;;;;;;;;;;;;;;5017851;28;7166;-55
2023/03/25 04:53:36;;;;;;;;;;;;;;;;;;5017827;28;7159;-54
2023/03/25 04:56:02;;;;;;;;;;;;;;;;;;5017865;28;6810;-53
2023/03/25 05:01:31;;;;;;;;;;;;;;;;;;5017650;28;6926;-51
2023/03/25 05:04:12;;;;;;;;;;;;;;;;;;5016989;28;7794;-52
2023/03/25 05:06:40;;;;;;;;;;;;;;;;;;5037309;28;7183;-54
2023/03/25 05:09:42;;;;;;;;;;;;;;;;;;5037184;28;7090;-53
2023/03/25 05:12:10;;;;;;;;;;;;;;;;;;5037360;28;7083;-51
2023/03/25 05:14:35;;;;;;;;;;;;;;;;;;5036809;28;7297;-53
2023/03/25 05:20:07;;;;;;;;;;;;;;;;;;5023336;28;6689;-54
2023/03/25 05:22:33;;;;;;;;;;;;;;;;;;5033481;28;7233;-52
2023/03/25 05:25:01;;;;;;;;;;;;;;;;;;5036934;28;6920;-49
2023/03/25 05:27:40;;;;;;;;;;;;;;;;;;5020052;28;7230;-51
2023/03/25 05:30:06;;;;;;;;;;;;;;;;;;5017009;28;7302;-52
2023/03/25 05:32:32;;;;;;;;;;;;;;;;;;5017613;28;7492;-54
2023/03/25 05:35:01;;;;;;;;;;;;;;;;;;5016826;28;6943;-51
2023/03/25 05:37:36;;;;;;;;;;;;;;;;;;5016949;28;7407;-51
2023/03/25 05:40:03;;;;;;;;;;;;;;;;;;5017266;28;7152;-51
2023/03/25 05:42:29;;;;;;;;;;;;;;;;;;5016835;28;7442;-51
2023/03/25 05:45:20;;;;;;;;;;;;;;;;;;5016782;28;7175;-52
2023/03/25 05:47:45;;;;;;;;;;;;;;;;;;5015044;28;6969;-54
2023/03/25 05:50:14;;;;;;;;;;;;;;;;;;5016452;28;7101;-50
2023/03/25 05:52:40;;;;;;;;;;;;;;;;;;5016666;28;7223;-56
2023/03/25 05:55:14;;;;;;;;;;;;;;;;;;5016535;28;7388;-59
2023/03/25 05:57:40;;;;;;;;;;;;;;;;;;5016291;28;7104;-55
2023/03/25 06:00:07;;;;;;;;;;;;;;;;;;5023870;28;7128;-55
2023/03/25 06:06:04;;;;;;;;;;;;;;;;;;5035987;28;6679;-54
2023/03/25 06:08:30;;;;;;;;;;;;;;;;;;5018444;28;8425;-54
2023/03/25 06:11:14;;;;;;;;;;;;;;;;;;5036012;28;7062;-55
2023/03/25 06:13:40;;;;;;;;;;;;;;;;;;5026616;28;7166;-56
2023/03/25 06:16:29;;;;;;;;;;;;;;;;;;5027037;28;6927;-57
2023/03/25 06:18:58;;;;;;;;;;;;;;;;;;5034452;28;6980;-57
2023/03/25 06:21:31;;;;;;;;;;;;;;;;;;5035618;28;7305;-56
2023/03/25 06:26:59;;;;;;;;;;;;;;;;;;5035819;28;6830;-56
2023/03/25 06:29:44;;;;;;;;;;;;;;;;;;5035713;28;6894;-56
2023/03/25 06:32:14;;;;;;;;;;;;;;;;;;5035857;28;7129;-56
2023/03/25 06:34:41;;;;;;;;;;;;;;;;;;5035619;28;7566;-56
2023/03/25 06:37:45;;;;;;;;;;;;;;;;;;5035536;28;7136;-54
2023/03/25 06:40:11;;;;;;;;;;;;;;;;;;5015453;28;7241;-55
2023/03/25 06:42:36;;;;;;;;;;;;;;;;;;5015701;28;7120;-52
2023/03/25 06:47:54;;;;;;;;;;;;;;;;;;5016113;28;7013;-55
2023/03/25 06:53:22;;;;;;;;;;;;;;;;;;5015222;28;6690;-53
2023/03/25 06:55:48;;;;;;;;;;;;;;;;;;5015327;28;7106;-54
2023/03/25 06:58:13;;;;;;;;;;;;;;;;;;5015358;28;7136;-54
2023/03/25 07:00:39;;;;;;;;;;;;;;;;;;5026098;28;6798;-55
2023/03/25 07:06:07;;;;;;;;;;;;;;;;;;5034722;28;6924;-55
2023/03/25 07:08:33;;;;;;;;;;;;;;;;;;5034462;28;7584;-56
2023/03/25 07:11:00;;;;;;;;;;;;;;;;;;5036155;28;7239;-55
2023/03/25 07:13:58;;;;;;;;;;;;;;;;;;5019529;28;7171;-56
2023/03/25 07:16:24;;;;;;;;;;;;;;;;;;5015082;28;7197;-56
2023/03/25 07:18:50;;;;;;;;;;;;;;;;;;5015044;28;7075;-56
2023/03/25 07:21:26;;;;;;;;;;;;;;;;;;5015650;28;6959;-56
2023/03/25 07:23:52;;;;;;;;;;;;;;;;;;5015668;28;6933;-55
2023/03/25 07:26:21;;;;;;;;;;;;;;;;;;5034670;28;7205;-54
2023/03/25 07:28:47;;;;;;;;;;;;;;;;;;5034853;28;7261;-56
2023/03/25 07:34:37;;;;;;;;;;;;;;;;;;5034663;28;6828;-56
2023/03/25 07:40:40;;;;;;;;;;;;;;;;;;5034477;28;6988;-54
2023/03/25 07:43:05;;;;;;;;;;;;;;;;;;5034956;28;7173;-55
2023/03/25 07:45:31;;;;;;;;;;;;;;;;;;5016760;28;8552;-55
2023/03/25 07:47:59;;;;;;;;;;;;;;;;;;5034077;28;7011;-56
2023/03/25 07:50:24;;;;;;;;;;;;;;;;;;5034643;28;7453;-56
2023/03/25 07:53:10;;;;;;;;;;;;;;;;;;5034563;28;6799;-56
2023/03/25 07:55:36;;;;;;;;;;;;;;;;;;5035183;28;7382;-56
2023/03/25 07:58:01;;;;;;;;;;;;;;;;;;5034402;28;7121;-56
2023/03/25 08:00:28;;;;;;;;;;;;;;;;;;5030609;28;7263;-55
2023/03/25 08:03:15;;;;;;;;;;;;;;;;;;5034424;28;7207;-55
2023/03/25 08:05:47;;;;;;;;;;;;;;;;;;5034782;28;7468;-55
2023/03/25 08:14:18;;;;;;;;;;;;;;;;;;5018193;28;6694;-56
2023/03/25 08:17:19;;;;;;;;;;;;;;;;;;5018488;28;7147;-55
2023/03/25 08:19:45;;;;;;;;;;;;;;;;;;5019272;28;6972;-54
2023/03/25 08:22:10;;;;;;;;;;;;;;;;;;5018422;28;7473;-55
2023/03/25 08:27:34;;;;;;;;;;;;;;;;;;5018365;28;7044;-55
2023/03/25 08:42:08;;;;;;;;;;;;;;;;;;5037630;28;6922;-56
2023/03/25 08:48:05;;;;;;;;;;;;;;;;;;5037335;28;6687;-54
2023/03/25 08:50:31;;;;;;;;;;;;;;;;;;5037312;28;7457;-56
2023/03/25 08:53:24;;;;;;;;;;;;;;;;;;5038033;28;7180;-55
2023/03/25 08:55:51;;;;;;;;;;;;;;;;;;5037563;28;7390;-59
2023/03/25 08:58:18;;;;;;;;;;;;;;;;;;5037114;28;7031;-59
2023/03/25 09:00:44;;;;;;;;;;;;;;;;;;5037138;28;7112;-59
2023/03/25 09:06:13;;;;;;;;;;;;;;;;;;5037022;28;7389;-59
2023/03/25 09:08:40;;;;;;;;;;;;;;;;;;5036629;28;7165;-59
2023/03/25 09:11:06;;;;;;;;;;;;;;;;;;5037182;28;7193;-59
2023/03/25 09:13:44;;;;;;;;;;;;;;;;;;5037079;28;7366;-59
2023/03/25 09:16:10;;;;;;;;;;;;;;;;;;5037324;28;6956;-59
2023/03/25 09:21:38;;;;;;;;;;;;;;;;;;5036534;28;6702;-60
2023/03/25 09:24:07;;;;;;;;;;;;;;;;;;5036978;28;7339;-60
2023/03/25 09:26:33;;;;;;;;;;;;;;;;;;5035237;28;6921;-59
2023/03/25 09:28:59;;;;;;;;;;;;;;;;;;5017016;28;7350;-59
2023/03/25 09:31:25;;;;;;;;;;;;;;;;;;5017108;28;7206;-60
2023/03/25 09:33:50;;;;;;;;;;;;;;;;;;5017127;28;7143;-61
2023/03/25 09:41:47;;;;;;;;;;;;;;;;;;5033142;28;7672;-60
2023/03/25 09:44:39;;;;;;;;;;;;;;;;;;5034476;28;7181;-60
2023/03/25 09:47:08;;;;;;;;;;;;;;;;;;5035916;28;7455;-60
2023/03/25 09:58:40;;;;;;;;;;;;;;;;;;5036767;28;6957;-60
2023/03/25 10:01:33;;;;;;;;;;;;;;;;;;5035610;28;7245;-60
2023/03/25 10:07:36;;;;;;;;;;;;;;;;;;5016085;28;6685;-60
2023/03/25 10:10:21;;;;;;;;;;;;;;;;;;4998226;28;8558;-60
2023/03/25 10:15:53;;;;;;;;;;;;;;;;;;5016763;28;6794;-60
2023/03/25 10:24:26;;;;;;;;;;;;;;;;;;5016509;28;6987;-61
2023/03/25 10:27:04;;;;;;;;;;;;;;;;;;4998528;28;7184;-61
2023/03/25 10:29:32;;;;;;;;;;;;;;;;;;5016473;28;7457;-61
2023/03/25 10:32:06;;;;;;;;;;;;;;;;;;5016058;28;7204;-60
2023/03/25 10:34:41;;;;;;;;;;;;;;;;;;5006008;28;7111;-60
2023/03/25 10:37:11;;;;;;;;;;;;;;;;;;5035721;28;7371;-60
2023/03/25 10:46:14;;;;;;;;;;;;;;;;;;5055248;28;6984;-60
2023/03/25 10:51:44;;;;;;;;;;;;;;;;;;5055203;28;6925;-60
2023/03/25 10:54:13;;;;;;;;;;;;;;;;;;5054963;28;6926;-60
2023/03/25 10:59:55;;;;;;;;;;;;;;;;;;5040523;28;6727;-60
2023/03/25 11:02:24;;;;;;;;;;;;;;;;;;5035240;28;7134;-60
2023/03/25 11:04:58;;;;;;;;;;;;;;;;;;5017240;28;7175;-60
2023/03/25 11:07:29;;;;;;;;;;;;;;;;;;5035058;28;6982;-60
2023/03/25 11:10:11;;;;;;;;;;;;;;;;;;5034734;28;7197;-60
2023/03/25 11:12:37;;;;;;;;;;;;;;;;;;5030205;28;8390;-60
2023/03/25 11:18:21;;;;;;;;;;;;;;;;;;5034273;28;6949;-60
2023/03/25 11:21:18;;;;;;;;;;;;;;;;;;5034816;28;7064;-60
2023/03/25 11:23:57;;;;;;;;;;;;;;;;;;5017651;28;7139;-60
2023/03/25 11:26:29;;;;;;;;;;;;;;;;;;5034183;28;7182;-60
2023/03/25 11:34:42;;;;;;;;;;;;;;;;;;5035006;28;7091;-59
2023/03/25 11:40:17;;;;;;;;;;;;;;;;;;5054463;28;6984;-60
2023/03/25 11:42:48;;;;;;;;;;;;;;;;;;5054268;28;7407;-60
2023/03/25 11:48:31;;;;;;;;;;;;;;;;;;5058600;28;6692;-60
2023/03/25 11:51:00;;;;;;;;;;;;;;;;;;5058652;28;7175;-60
2023/03/25 11:53:51;;;;;;;;;;;;;;;;;;5058465;28;7547;-59
2023/03/25 11:56:21;;;;;;;;;;;;;;;;;;5058481;28;6913;-60
2023/03/25 11:58:50;;;;;;;;;;;;;;;;;;5058394;28;6904;-59
2023/03/25 12:04:23;;;;;;;;;;;;;;;;;;5058422;28;6924;-59
2023/03/25 12:09:54;;;;;;;;;;;;;;;;;;5058036;28;6685;-60
2023/03/25 12:15:58;;;;;;;;;;;;;;;;;;5058071;28;6940;-60
2023/03/25 12:18:26;;;;;;;;;;;;;;;;;;5058082;28;7109;-60
2023/03/25 12:27:14;;;;;;;;;;;;;;;;;;4996982;28;7002;-60
2023/03/25 12:30:02;;;;;;;;;;;;;;;;;;4996586;28;6998;-60
2023/03/25 12:32:46;;;;;;;;;;;;;;;;;;4996697;28;7081;-60
2023/03/25 12:35:22;;;;;;;;;;;;;;;;;;4996708;28;7361;-60
2023/03/25 12:38:06;;;;;;;;;;;;;;;;;;4980432;28;6999;-59
2023/03/25 12:40:45;;;;;;;;;;;;;;;;;;4996900;28;6974;-60
2023/03/25 12:43:23;;;;;;;;;;;;;;;;;;4996220;28;6958;-60
2023/03/25 12:52:22;;;;;;;;;;;;;;;;;;4957737;28;6826;-60
2023/03/25 12:55:27;;;;;;;;;;;;;;;;;;4957523;28;7339;-60
2023/03/25 12:58:01;;;;;;;;;;;;;;;;;;4918758;29;7105;-60
2023/03/25 13:00:43;;;;;;;;;;;;;;;;;;4927892;29;7106;-60
2023/03/25 13:03:26;;;;;;;;;;;;;;;;;;4937998;29;7136;-61
2023/03/25 13:06:07;;;;;;;;;;;;;;;;;;4934587;29;7112;-61
2023/03/25 13:09:07;;;;;;;;;;;;;;;;;;4918952;29;7457;-60
2023/03/25 13:11:48;;;;;;;;;;;;;;;;;;4919235;29;7194;-60
2023/03/25 13:14:26;;;;;;;;;;;;;;;;;;4928211;29;7214;-60
2023/03/25 13:16:55;;;;;;;;;;;;;;;;;;4937951;29;7124;-60
2023/03/25 13:19:27;;;;;;;;;;;;;;;;;;4930646;29;7291;-60
2023/03/25 13:21:59;;;;;;;;;;;;;;;;;;4918961;29;7209;-60
2023/03/25 13:24:24;;;;;;;;;;;;;;;;;;5055733;23;7101;-65
2023/03/25 13:26:54;;;;;;;;;;;;;;;;;;5015684;28;7127;-67
2023/03/25 13:32:32;;;;;;;;;;;;;;;;;;5016940;28;6687;-67
2023/03/25 13:38:05;;;;;;;;;;;;;;;;;;5016645;28;7114;-67
2023/03/25 13:40:58;;;;;;;;;;;;;;;;;;5017558;28;7426;-67
2023/03/25 13:46:50;;;;;;;;;;;;;;;;;;5017025;28;6697;-67
2023/03/25 13:49:34;;;;;;;;;;;;;;;;;;5017295;28;7015;-67
2023/03/25 13:52:00;;;;;;;;;;;;;;;;;;5016732;28;6972;-67
2023/03/25 13:54:29;;;;;;;;;;;;;;;;;;5016461;28;6933;-67
2023/03/25 14:03:18;;;;;;;;;;;;;;;;;;5016447;28;6964;-66
2023/03/25 14:05:46;;;;;;;;;;;;;;;;;;5016537;28;7188;-66
2023/03/25 14:08:31;;;;;;;;;;;;;;;;;;5015478;28;7193;-67
2023/03/25 14:11:19;;;;;;;;;;;;;;;;;;5016110;28;7149;-67
2023/03/25 14:16:54;;;;;;;;;;;;;;;;;;4898748;29;6694;-66
2023/03/25 14:19:26;;;;;;;;;;;;;;;;;;4898489;29;7211;-66
2023/03/25 14:22:02;;;;;;;;;;;;;;;;;;4898782;29;8400;-67
2023/03/25 14:24:45;;;;;;;;;;;;;;;;;;4898522;29;6922;-66
2023/03/25 14:27:18;;;;;;;;;;;;;;;;;;4910621;29;7490;-66
2023/03/25 14:29:53;;;;;;;;;;;;;;;;;;4917505;29;8378;-67
2023/03/25 14:32:19;;;;;;;;;;;;;;;;;;4902136;29;7012;-67
2023/03/25 14:34:48;;;;;;;;;;;;;;;;;;4918086;29;7167;-67
2023/03/25 14:37:29;;;;;;;;;;;;;;;;;;4917248;29;6972;-67
2023/03/25 14:40:00;;;;;;;;;;;;;;;;;;4918204;29;7700;-66
2023/03/25 14:42:28;;;;;;;;;;;;;;;;;;4918078;29;7205;-67
2023/03/25 14:45:13;;;;;;;;;;;;;;;;;;4917459;29;7018;-67
2023/03/25 14:51:12;;;;;;;;;;;;;;;;;;4945215;28;6698;-67
2023/03/25 14:56:55;;;;;;;;;;;;;;;;;;4976492;28;6925;-67
2023/03/25 15:05:54;;;;;;;;;;;;;;;;;;4995648;28;6681;-67
2023/03/25 15:08:40;;;;;;;;;;;;;;;;;;4996053;28;7052;-67
2023/03/25 15:11:36;;;;;;;;;;;;;;;;;;4995749;28;7194;-67
2023/03/25 15:14:18;;;;;;;;;;;;;;;;;;4994739;28;7262;-67
2023/03/25 15:16:47;;;;;;;;;;;;;;;;;;4995661;28;7012;-67
2023/03/25 15:19:18;;;;;;;;;;;;;;;;;;4995973;28;7195;-67
2023/03/25 15:22:09;;;;;;;;;;;;;;;;;;4995666;28;7369;-66
2023/03/25 15:27:37;;;;;;;;;;;;;;;;;;5034856;28;6773;-67
2023/03/25 15:30:38;;;;;;;;;;;;;;;;;;5034846;28;7057;-67
2023/03/25 15:42:31;;;;;;;;;;;;;;;;;;5015060;28;6910;-67
2023/03/25 15:45:21;;;;;;;;;;;;;;;;;;5014987;28;7019;-67
2023/03/25 15:47:52;;;;;;;;;;;;;;;;;;5032723;28;9012;-67
2023/03/25 16:00:00;;;;;;;;;;;;;;;;;;5034192;28;6681;-67
2023/03/25 16:02:37;;;;;;;;;;;;;;;;;;5034583;28;7092;-68
2023/03/25 16:05:05;;;;;;;;;;;;;;;;;;5034255;28;6921;-68
2023/03/25 16:07:33;;;;;;;;;;;;;;;;;;5103287;23;6961;-61
2023/03/25 16:10:20;;;;;;;;;;;;;;;;;;5014334;28;7249;-61
2023/03/25 16:13:04;;;;;;;;;;;;;;;;;;5014592;28;7360;-62
2023/03/25 16:15:32;;;;;;;;;;;;;;;;;;5015297;28;7394;-60
2023/03/25 16:18:27;;;;;;;;;;;;;;;;;;5014431;28;7043;-60
2023/03/25 16:21:12;;;;;;;;;;;;;;;;;;5014835;28;7435;-60
2023/03/25 16:23:38;;;;;;;;;;;;;;;;;;5014623;28;7149;-60
2023/03/25 16:26:06;;;;;;;;;;;;;;;;;;5014682;28;7080;-60
2023/03/25 16:28:52;;;;;;;;;;;;;;;;;;5014044;28;7190;-60
2023/03/25 16:31:33;;;;;;;;;;;;;;;;;;5015166;28;7189;-60
2023/03/25 16:33:59;;;;;;;;;;;;;;;;;;5017995;28;7177;-60
2023/03/25 16:39:31;;;;;;;;;;;;;;;;;;5017937;28;6690;-60
2023/03/25 16:42:01;;;;;;;;;;;;;;;;;;5018254;28;6899;-59
2023/03/25 16:44:27;;;;;;;;;;;;;;;;;;5018130;28;7290;-60
2023/03/25 16:47:20;;;;;;;;;;;;;;;;;;5018543;28;7111;-60
2023/03/25 16:49:48;;;;;;;;;;;;;;;;;;5017865;28;7142;-60
2023/03/25 16:55:32;;;;;;;;;;;;;;;;;;5018272;28;6912;-60
2023/03/25 16:58:01;;;;;;;;;;;;;;;;;;5017760;28;6947;-61
2023/03/25 17:06:34;;;;;;;;;;;;;;;;;;5017601;28;7022;-60
2023/03/25 17:09:01;;;;;;;;;;;;;;;;;;5030277;28;7290;-60
2023/03/25 17:11:28;;;;;;;;;;;;;;;;;;5037154;28;7029;-60
2023/03/25 17:17:11;;;;;;;;;;;;;;;;;;5036963;28;6940;-61
2023/03/25 17:19:44;;;;;;;;;;;;;;;;;;5019923;28;7358;-61
2023/03/25 17:25:41;;;;;;;;;;;;;;;;;;5036991;28;6709;-61
2023/03/25 17:28:27;;;;;;;;;;;;;;;;;;5037904;28;7182;-61
2023/03/25 17:30:52;;;;;;;;;;;;;;;;;;5036981;28;7053;-61
2023/03/25 17:36:21;;;;;;;;;;;;;;;;;;5036701;28;6685;-61
2023/03/25 17:38:49;;;;;;;;;;;;;;;;;;5036806;28;7130;-60
2023/03/25 17:41:35;;;;;;;;;;;;;;;;;;5036853;28;7199;-60
2023/03/25 17:50:20;;;;;;;;;;;;;;;;;;5036295;28;6940;-60
2023/03/25 17:52:46;;;;;;;;;;;;;;;;;;5036553;28;7190;-60
2023/03/25 17:55:22;;;;;;;;;;;;;;;;;;5036260;28;7106;-60
2023/03/25 17:57:48;;;;;;;;;;;;;;;;;;5036685;28;6915;-60
2023/03/25 18:03:39;;;;;;;;;;;;;;;;;;5036286;28;6903;-60
2023/03/25 18:06:23;;;;;;;;;;;;;;;;;;5036369;28;7219;-60
2023/03/25 18:11:52;;;;;;;;;;;;;;;;;;5036067;28;6931;-60
2023/03/25 18:14:36;;;;;;;;;;;;;;;;;;5016315;28;7004;-60
2023/03/25 18:17:02;;;;;;;;;;;;;;;;;;5016298;28;7129;-60
2023/03/25 18:19:50;;;;;;;;;;;;;;;;;;5016394;28;7399;-60
2023/03/25 18:22:15;;;;;;;;;;;;;;;;;;5015969;28;7210;-60
2023/03/25 18:27:55;;;;;;;;;;;;;;;;;;5015978;28;6920;-60
2023/03/25 18:30:29;;;;;;;;;;;;;;;;;;5028286;28;6828;-60
2023/03/25 18:39:00;;;;;;;;;;;;;;;;;;5035395;28;6916;-66
2023/03/25 18:41:51;;;;;;;;;;;;;;;;;;5035196;28;7229;-67
2023/03/25 18:44:17;;;;;;;;;;;;;;;;;;5035596;28;6924;-67
2023/03/25 18:46:43;;;;;;;;;;;;;;;;;;5035357;28;7140;-67
2023/03/25 18:52:11;;;;;;;;;;;;;;;;;;5035139;28;6745;-67
2023/03/25 18:54:36;;;;;;;;;;;;;;;;;;5034447;28;6959;-67
2023/03/25 18:57:02;;;;;;;;;;;;;;;;;;5034983;28;6989;-67
2023/03/25 18:59:28;;;;;;;;;;;;;;;;;;5035729;28;7120;-67
2023/03/25 19:08:00;;;;;;;;;;;;;;;;;;5034594;28;6686;-67
2023/03/25 19:10:30;;;;;;;;;;;;;;;;;;5034994;28;7275;-66
2023/03/25 19:16:20;;;;;;;;;;;;;;;;;;5034938;28;6705;-67
2023/03/25 19:18:47;;;;;;;;;;;;;;;;;;5034743;28;7406;-67
2023/03/25 19:21:41;;;;;;;;;;;;;;;;;;5034974;28;6945;-67
2023/03/25 19:24:06;;;;;;;;;;;;;;;;;;5015183;28;6978;-67
2023/03/25 19:29:35;;;;;;;;;;;;;;;;;;5014760;28;7406;-67
2023/03/25 19:32:01;;;;;;;;;;;;;;;;;;5033902;28;7962;-67
2023/03/25 19:34:27;;;;;;;;;;;;;;;;;;5034707;28;7220;-67
2023/03/25 19:40:07;;;;;;;;;;;;;;;;;;5031991;28;7586;-67
2023/03/25 19:42:34;;;;;;;;;;;;;;;;;;5030878;28;7193;-67
2023/03/25 19:45:11;;;;;;;;;;;;;;;;;;5032249;28;6927;-67
2023/03/25 19:47:40;;;;;;;;;;;;;;;;;;5014840;28;6997;-67
2023/03/25 19:56:12;;;;;;;;;;;;;;;;;;5021151;28;6681;-67
2023/03/25 19:59:05;;;;;;;;;;;;;;;;;;5034437;28;6980;-67
2023/03/25 20:01:31;;;;;;;;;;;;;;;;;;5034229;28;6853;-67
2023/03/25 20:06:47;;;;;;;;;;;;;;;;;;5037278;28;6933;-67
2023/03/25 20:09:13;;;;;;;;;;;;;;;;;;5009080;28;7151;-67
2023/03/25 20:15:10;;;;;;;;;;;;;;;;;;5018327;28;6674;-67
2023/03/25 20:17:36;;;;;;;;;;;;;;;;;;5018131;28;7232;-67
2023/03/25 20:23:34;;;;;;;;;;;;;;;;;;5018297;28;6837;-67
2023/03/25 20:26:00;;;;;;;;;;;;;;;;;;5018472;28;7007;-67
2023/03/25 20:28:26;;;;;;;;;;;;;;;;;;5018419;28;7313;-67
2023/03/25 20:30:51;;;;;;;;;;;;;;;;;;5018358;28;7246;-67
2023/03/25 20:33:18;;;;;;;;;;;;;;;;;;5018311;28;7185;-67
2023/03/25 20:38:48;;;;;;;;;;;;;;;;;;5017897;28;6749;-67
2023/03/25 20:41:45;;;;;;;;;;;;;;;;;;5018284;28;7452;-67
2023/03/25 20:44:10;;;;;;;;;;;;;;;;;;5018113;28;7407;-67
2023/03/25 20:46:36;;;;;;;;;;;;;;;;;;5017756;28;7034;-67
2023/03/25 20:49:04;;;;;;;;;;;;;;;;;;5018326;28;7284;-67
2023/03/25 20:51:43;;;;;;;;;;;;;;;;;;5017591;28;7053;-67
2023/03/25 20:54:09;;;;;;;;;;;;;;;;;;5017589;28;7384;-67
2023/03/25 20:59:27;;;;;;;;;;;;;;;;;;5018606;28;6932;-67
2023/03/25 21:01:53;;;;;;;;;;;;;;;;;;5018630;28;7173;-67
2023/03/25 21:04:20;;;;;;;;;;;;;;;;;;5017376;28;7211;-67
2023/03/25 21:06:47;;;;;;;;;;;;;;;;;;5018405;28;7103;-67
2023/03/25 21:09:13;;;;;;;;;;;;;;;;;;5028192;28;7355;-60
2023/03/25 21:14:42;;;;;;;;;;;;;;;;;;5037119;28;6678;-60
2023/03/25 21:17:15;;;;;;;;;;;;;;;;;;5036648;28;6905;-60
2023/03/25 21:19:42;;;;;;;;;;;;;;;;;;5037235;28;7124;-60
2023/03/25 21:22:13;;;;;;;;;;;;;;;;;;5037162;28;7023;-60
2023/03/25 21:24:39;;;;;;;;;;;;;;;;;;5019280;28;7144;-60
2023/03/25 21:27:31;;;;;;;;;;;;;;;;;;5037505;28;7187;-60
2023/03/25 21:29:57;;;;;;;;;;;;;;;;;;5037223;28;7032;-60
2023/03/25 21:32:41;;;;;;;;;;;;;;;;;;5036884;28;7337;-60
2023/03/25 21:35:17;;;;;;;;;;;;;;;;;;5037051;28;7147;-60
2023/03/25 21:37:43;;;;;;;;;;;;;;;;;;5036827;28;7212;-60
2023/03/25 21:40:10;;;;;;;;;;;;;;;;;;5036865;28;6931;-60
2023/03/25 21:42:39;;;;;;;;;;;;;;;;;;5037520;28;7399;-60
2023/03/25 21:45:16;;;;;;;;;;;;;;;;;;5036907;28;7145;-60
2023/03/25 21:47:43;;;;;;;;;;;;;;;;;;5036582;28;6886;-60
2023/03/25 21:59:24;;;;;;;;;;;;;;;;;;5036290;28;6979;-67
2023/03/25 22:01:54;;;;;;;;;;;;;;;;;;5036449;28;7414;-67
2023/03/25 22:04:20;;;;;;;;;;;;;;;;;;5036405;28;7053;-67
2023/03/25 22:06:50;;;;;;;;;;;;;;;;;;5036945;28;7008;-67
2023/03/25 22:12:18;;;;;;;;;;;;;;;;;;5035989;28;6738;-67
2023/03/25 22:14:44;;;;;;;;;;;;;;;;;;5036163;28;7189;-67
2023/03/25 22:17:09;;;;;;;;;;;;;;;;;;5036085;28;7244;-67
2023/03/25 22:19:35;;;;;;;;;;;;;;;;;;5036106;28;6924;-67
2023/03/25 22:25:05;;;;;;;;;;;;;;;;;;5035809;28;6687;-67
2023/03/25 22:27:51;;;;;;;;;;;;;;;;;;5035853;28;7193;-67
2023/03/25 22:30:16;;;;;;;;;;;;;;;;;;5035012;28;6999;-67
2023/03/25 22:32:42;;;;;;;;;;;;;;;;;;5036949;28;7378;-67
2023/03/25 22:35:16;;;;;;;;;;;;;;;;;;5036911;28;7143;-67
2023/03/25 22:37:41;;;;;;;;;;;;;;;;;;5035639;28;7240;-67
2023/03/25 22:43:00;;;;;;;;;;;;;;;;;;5035973;28;7044;-67
2023/03/25 22:45:26;;;;;;;;;;;;;;;;;;5035400;28;6906;-67
2023/03/25 22:47:52;;;;;;;;;;;;;;;;;;5035488;28;6909;-67
2023/03/25 22:53:29;;;;;;;;;;;;;;;;;;5035234;28;6929;-67
2023/03/25 22:55:55;;;;;;;;;;;;;;;;;;5035509;28;7149;-67
2023/03/25 23:01:55;;;;;;;;;;;;;;;;;;5035108;28;6933;-67
2023/03/25 23:04:20;;;;;;;;;;;;;;;;;;5035648;28;7152;-67
2023/03/25 23:07:00;;;;;;;;;;;;;;;;;;5034900;28;7240;-67
2023/03/25 23:12:28;;;;;;;;;;;;;;;;;;5035527;28;6921;-67
2023/03/25 23:15:05;;;;;;;;;;;;;;;;;;5035054;28;7133;-67
2023/03/25 23:17:33;;;;;;;;;;;;;;;;;;5035037;28;7090;-67
2023/03/25 23:20:01;;;;;;;;;;;;;;;;;;5034741;28;7117;-67
2023/03/25 23:22:26;;;;;;;;;;;;;;;;;;5035017;28;6989;-67
2023/03/25 23:24:52;;;;;;;;;;;;;;;;;;5035267;28;7333;-67
2023/03/25 23:30:28;;;;;;;;;;;;;;;;;;5034387;28;7012;-67
2023/03/25 23:32:53;;;;;;;;;;;;;;;;;;5034847;28;7212;-67
2023/03/25 23:38:24;;;;;;;;;;;;;;;;;;5034540;28;6983;-67
2023/03/25 23:40:57;;;;;;;;;;;;;;;;;;5034569;28;7136;-67
2023/03/25 23:43:42;;;;;;;;;;;;;;;;;;5016943;28;8429;-67
2023/03/25 23:46:10;;;;;;;;;;;;;;;;;;5034521;28;7331;-67
2023/03/25 23:48:40;;;;;;;;;;;;;;;;;;5034725;28;6941;-67
2023/03/25 23:51:09;;;;;;;;;;;;;;;;;;5034435;28;6981;-67
2023/03/25 23:53:36;;;;;;;;;;;;;;;;;;5034570;28;6982;-67
2023/03/25 23:59:05;;;;;;;;;;;;;;;;;;5034426;28;6733;-67
